createdAt,value
2019-06-26T00:00:04.154Z,23.77
2019-06-26T00:05:10.915Z,23.79
2019-06-26T00:10:16.072Z,23.82
2019-06-26T00:15:21.259Z,23.81
2019-06-26T00:20:26.320Z,23.64
2019-06-26T00:25:31.129Z,23.75
2019-06-26T00:30:36.034Z,23.75
2019-06-26T00:35:42.814Z,23.73
2019-06-26T00:40:47.950Z,23.65
2019-06-26T00:45:53.731Z,23.78
2019-06-26T00:51:00.317Z,23.51
2019-06-26T00:56:05.651Z,23.65
2019-06-26T01:01:10.922Z,23.69
2019-06-26T01:06:33.769Z,23.64
2019-06-26T01:11:40.282Z,23.55
2019-06-26T01:16:45.197Z,23.68
2019-06-26T01:21:50.211Z,23.64
2019-06-26T01:26:55.013Z,23.62
2019-06-26T01:32:04.166Z,23.57
2019-06-26T01:37:09.543Z,23.66
2019-06-26T01:42:14.587Z,23.69
2019-06-26T01:47:19.595Z,23.77
2019-06-26T01:52:24.587Z,23.78
2019-06-26T01:57:29.612Z,23.52
2019-06-26T02:02:34.804Z,23.61
2019-06-26T02:07:39.680Z,23.74
2019-06-26T02:12:44.688Z,23.61
2019-06-26T02:17:49.412Z,23.78
2019-06-26T02:22:54.077Z,23.82
2019-06-26T02:27:59.234Z,23.71
2019-06-26T02:33:05.598Z,23.70
2019-06-26T02:38:10.769Z,23.64
2019-06-26T02:43:15.715Z,23.73
2019-06-26T02:48:20.543Z,23.58
2019-06-26T02:53:25.290Z,23.75
2019-06-26T02:58:30.255Z,23.68
2019-06-26T03:03:35.317Z,23.57
2019-06-26T03:08:40.754Z,23.72
2019-06-26T03:13:46.932Z,23.84
2019-06-26T03:18:51.872Z,23.83
2019-06-26T03:23:56.830Z,23.88
2019-06-26T03:29:01.695Z,23.84
2019-06-26T03:34:06.538Z,23.80
2019-06-26T03:39:11.593Z,23.70
2019-06-26T03:44:17.901Z,23.75
2019-06-26T03:49:22.923Z,23.68
2019-06-26T03:54:27.630Z,23.57
2019-06-26T03:59:32.652Z,23.53
2019-06-26T04:04:37.355Z,23.69
2019-06-26T04:09:42.497Z,23.80
2019-06-26T04:14:47.258Z,23.70
2019-06-26T04:19:52.197Z,23.60
2019-06-26T04:24:57.420Z,23.82
2019-06-26T04:30:02.310Z,23.85
2019-06-26T04:35:10.057Z,23.78
2019-06-26T04:40:16.386Z,23.75
2019-06-26T04:45:21.489Z,23.93
2019-06-26T04:50:27.407Z,23.97
2019-06-26T04:55:32.789Z,23.86
2019-06-26T05:00:38.174Z,23.56
2019-06-26T05:05:46.587Z,23.86
2019-06-26T05:10:51.713Z,23.94
2019-06-26T05:15:56.857Z,23.81
2019-06-26T05:21:02.060Z,23.97
2019-06-26T05:26:07.826Z,23.98
2019-06-26T05:31:12.923Z,24.01
2019-06-26T05:36:18.301Z,24.11
2019-06-26T05:41:23.124Z,24.10
2019-06-26T05:46:31.476Z,24.18
2019-06-26T05:51:34.545Z,24.19
2019-06-26T05:56:39.419Z,24.24
2019-06-26T06:01:44.368Z,24.22
2019-06-26T06:06:49.139Z,24.32
2019-06-26T06:11:53.772Z,24.41
2019-06-26T06:16:58.507Z,24.40
2019-06-26T06:22:03.512Z,24.25
2019-06-26T06:27:08.544Z,24.38
2019-06-26T06:32:13.979Z,24.43
2019-06-26T06:37:18.871Z,24.45
2019-06-26T06:42:23.891Z,24.35
2019-06-26T06:47:29.126Z,24.50
2019-06-26T06:52:34.571Z,24.53
2019-06-26T06:57:39.589Z,24.47
2019-06-26T07:02:44.451Z,24.83
2019-06-26T07:07:50.956Z,24.67
2019-06-26T07:12:57.342Z,24.86
2019-06-26T07:18:02.492Z,24.83
2019-06-26T07:23:08.993Z,25.15
2019-06-26T07:28:14.444Z,24.80
2019-06-26T07:33:19.383Z,24.81
2019-06-26T07:38:25.375Z,25.31
2019-06-26T07:43:31.006Z,25.57
2019-06-26T07:48:35.873Z,25.61
2019-06-26T07:53:40.553Z,25.47
2019-06-26T07:58:46.905Z,25.45
2019-06-26T08:03:52.416Z,25.55
2019-06-26T08:08:57.362Z,25.63
2019-06-26T08:14:25.919Z,25.73
2019-06-26T08:19:33.943Z,25.66
2019-06-26T08:24:40.581Z,25.83
2019-06-26T08:29:45.598Z,25.84
2019-06-26T08:34:51.709Z,25.70
2019-06-26T08:39:56.682Z,25.85
2019-06-26T08:45:03.077Z,26.12
2019-06-26T08:50:08.332Z,26.02
2019-06-26T08:55:13.599Z,26.32
2019-06-26T09:00:20.187Z,27.02
2019-06-26T09:05:25.047Z,26.99
2019-06-26T09:10:30.163Z,27.31
2019-06-26T09:15:35.226Z,26.66
2019-06-26T09:20:40.824Z,27.71
2019-06-26T09:25:45.540Z,27.75
2019-06-26T09:30:50.279Z,27.23
2019-06-26T09:35:55.438Z,27.59
2019-06-26T09:41:00.279Z,28.14
2019-06-26T09:46:05.421Z,28.14
2019-06-26T09:51:11.715Z,28.06
2019-06-26T09:56:16.848Z,28.06
2019-06-26T10:01:21.742Z,27.95
2019-06-26T10:06:26.728Z,27.78
2019-06-26T10:11:31.746Z,28.00
2019-06-26T10:16:36.753Z,28.19
2019-06-26T10:21:41.748Z,28.45
2019-06-26T10:26:46.772Z,27.67
2019-06-26T10:31:53.164Z,27.81
2019-06-26T10:37:00.892Z,28.03
2019-06-26T10:42:07.513Z,28.40
2019-06-26T10:47:12.402Z,28.83
2019-06-26T10:52:18.402Z,29.25
2019-06-26T10:57:23.323Z,28.67
2019-06-26T11:02:28.280Z,28.76
2019-06-26T11:07:36.303Z,29.13
2019-06-26T11:12:39.781Z,28.93
2019-06-26T11:17:47.157Z,29.42
2019-06-26T11:22:52.575Z,29.65
2019-06-26T11:27:57.349Z,29.28
2019-06-26T11:33:02.339Z,29.45
2019-06-26T11:38:07.853Z,28.96
2019-06-26T11:43:12.786Z,28.22
2019-06-26T11:48:18.404Z,28.80
2019-06-26T11:53:23.571Z,28.80
2019-06-26T11:58:28.593Z,29.04
2019-06-26T12:03:33.433Z,29.47
2019-06-26T12:08:38.774Z,29.52
2019-06-26T12:13:43.596Z,29.68
2019-06-26T12:18:48.720Z,29.86
2019-06-26T12:23:54.018Z,29.95
2019-06-26T12:29:00.561Z,29.68
2019-06-26T12:34:05.539Z,29.85
2019-06-26T12:39:10.963Z,30.29
2019-06-26T12:44:15.961Z,30.43
2019-06-26T12:49:21.061Z,30.19
2019-06-26T12:54:27.702Z,30.44
2019-06-26T12:59:33.040Z,30.43
2019-06-26T13:04:38.158Z,30.49
2019-06-26T13:09:42.935Z,30.16
2019-06-26T13:14:47.954Z,30.40
2019-06-26T13:19:52.779Z,30.54
2019-06-26T13:24:58.025Z,30.48
2019-06-26T13:30:04.477Z,30.65
2019-06-26T13:35:10.268Z,30.34
2019-06-26T13:40:15.538Z,30.47
2019-06-26T13:45:20.847Z,30.21
2019-06-26T13:50:25.927Z,30.52
2019-06-26T13:55:31.078Z,30.53
2019-06-26T14:00:36.071Z,30.61
2019-06-26T14:05:40.784Z,30.84
2019-06-26T14:10:45.722Z,31.23
2019-06-26T14:15:50.475Z,31.23
2019-06-26T14:20:55.296Z,30.66
2019-06-26T14:26:00.064Z,31.06
2019-06-26T14:31:04.889Z,30.52
2019-06-26T14:36:09.901Z,30.76
2019-06-26T14:41:16.679Z,31.05
2019-06-26T14:46:21.566Z,30.75
2019-06-26T14:51:41.150Z,30.70
2019-06-26T14:56:34.260Z,30.35
2019-06-26T15:01:39.935Z,31.12
2019-06-26T15:06:44.940Z,30.78
2019-06-26T15:11:50.037Z,30.51
2019-06-26T15:16:55.249Z,30.85
2019-06-26T15:22:00.681Z,30.61
2019-06-26T15:27:05.794Z,30.71
2019-06-26T15:32:10.748Z,30.23
2019-06-26T15:37:17.085Z,30.50
2019-06-26T15:42:24.434Z,30.57
2019-06-26T15:47:29.066Z,30.34
2019-06-26T15:52:34.135Z,30.18
2019-06-26T15:57:39.103Z,30.27
2019-06-26T16:02:47.511Z,30.16
2019-06-26T16:07:52.830Z,30.51
2019-06-26T16:12:57.722Z,30.51
2019-06-26T16:18:19.630Z,30.76
2019-06-26T16:23:25.137Z,30.78
2019-06-26T16:28:30.751Z,30.79
2019-06-26T16:33:35.883Z,30.73
2019-06-26T16:38:41.146Z,30.75
2019-06-26T16:43:45.986Z,30.76
2019-06-26T16:48:50.895Z,30.70
2019-06-26T16:53:55.737Z,30.54
2019-06-26T16:59:02.137Z,30.19
2019-06-26T17:04:08.325Z,30.08
2019-06-26T17:09:13.919Z,29.89
2019-06-26T17:14:18.842Z,29.64
2019-06-26T17:19:23.899Z,28.44
2019-06-26T17:24:28.760Z,27.27
2019-06-26T17:29:34.084Z,27.32
2019-06-26T17:34:39.335Z,27.23
2019-06-26T17:39:44.194Z,27.38
2019-06-26T18:11:28.349Z,26.68
2019-06-26T18:16:34.438Z,26.46
2019-06-26T18:21:39.349Z,26.62
2019-06-26T18:26:45.165Z,26.74
2019-06-26T18:31:50.008Z,26.07
2019-06-26T18:36:55.949Z,25.59
2019-06-26T18:42:00.903Z,25.99
2019-06-26T18:47:07.407Z,26.16
2019-06-26T18:52:12.474Z,26.13
2019-06-26T18:57:17.421Z,26.10
2019-06-26T19:02:22.394Z,25.83
2019-06-26T19:07:28.151Z,25.86
2019-06-26T19:12:36.114Z,25.51
2019-06-26T19:17:42.773Z,25.31
2019-06-26T19:22:48.500Z,25.55
2019-06-26T19:27:53.464Z,25.58
2019-06-26T19:32:58.302Z,25.62
2019-06-26T19:38:05.193Z,25.14
2019-06-26T19:43:11.467Z,25.24
2019-06-26T19:48:17.968Z,24.68
2019-06-26T19:53:23.213Z,24.32
2019-06-26T19:58:28.161Z,24.47
2019-06-26T20:03:33.211Z,24.28
2019-06-26T20:08:51.868Z,24.69
2019-06-26T20:13:45.554Z,24.98
2019-06-26T20:18:50.495Z,24.82
2019-06-26T20:23:55.501Z,25.06
2019-06-26T20:29:00.939Z,25.03
2019-06-26T20:34:06.564Z,24.92
2019-06-26T20:39:11.515Z,24.67
2019-06-26T20:44:17.349Z,24.64
2019-06-26T20:49:22.949Z,24.68
2019-06-26T20:54:28.179Z,24.33
2019-06-26T20:59:33.204Z,24.45
2019-06-26T21:04:38.052Z,24.17
2019-06-26T21:09:42.972Z,24.41
2019-06-26T21:14:48.944Z,24.19
2019-06-26T21:19:54.212Z,24.29
2019-06-26T21:24:59.627Z,23.97
2019-06-26T21:30:06.070Z,24.31
2019-06-26T21:35:12.568Z,23.74
2019-06-26T21:40:17.391Z,24.10
2019-06-26T21:45:22.522Z,23.45
2019-06-26T21:50:29.128Z,23.44
2019-06-26T21:55:35.047Z,23.50
2019-06-26T22:00:57.868Z,23.68
2019-06-26T22:06:20.522Z,23.63
2019-06-26T22:11:42.292Z,23.90
2019-06-26T22:16:47.638Z,23.86
2019-06-26T22:21:52.682Z,23.90
2019-06-26T22:26:57.524Z,23.88
2019-06-26T22:32:02.565Z,23.75
2019-06-26T22:37:07.567Z,23.84
2019-06-26T22:42:13.901Z,23.61
2019-06-26T22:47:18.848Z,23.49
2019-06-26T22:52:23.829Z,23.43
2019-06-26T22:57:28.974Z,23.47
2019-06-26T23:02:33.803Z,23.23
2019-06-26T23:07:38.648Z,23.64
2019-06-26T23:12:43.515Z,23.49
2019-06-26T23:17:48.748Z,23.62
2019-06-26T23:22:54.071Z,23.54
2019-06-26T23:27:59.099Z,23.46
2019-06-26T23:33:03.814Z,23.27
2019-06-26T23:38:08.961Z,23.42
2019-06-26T23:43:13.901Z,23.04
2019-06-26T23:48:19.340Z,22.95
2019-06-26T23:53:24.209Z,23.02
2019-06-26T23:58:29.178Z,23.14
